Time;durP1;ratioP1;P1;durP2;ratioP2;P2;SDS_P1;SDS_P2;PMS_P1;PMS_P2;Temp;Humidity;BMP_temperature;BMP_pressure;BME280_temperature;BME280_humidity;BME280_pressure;Samples;Min_cycle;Max_cycle;Signal;HPM_P1;HPM_P2
2021/09/14 00:00:12;;;;;;;23.92;14.93;;;12.80;99.90;;;;;;5073881;28;20025;-72
2021/09/14 00:02:38;;;;;;;18.52;14.38;;;12.70;99.90;;;;;;5073876;28;20100;-72
2021/09/14 00:05:05;;;;;;;19.55;13.50;;;12.70;99.90;;;;;;5073615;28;20056;-72
2021/09/14 00:07:30;;;;;;;22.27;15.65;;;12.70;99.90;;;;;;5073867;28;20028;-72
2021/09/14 00:09:56;;;;;;;20.15;14.43;;;12.60;99.90;;;;;;5073844;28;20030;-72
2021/09/14 00:12:22;;;;;;;17.52;12.75;;;12.60;99.90;;;;;;5055310;28;20021;-72
2021/09/14 00:14:48;;;;;;;19.20;13.90;;;12.50;99.90;;;;;;5073194;28;20501;-72
2021/09/14 00:17:14;;;;;;;20.60;13.70;;;12.40;99.90;;;;;;5073779;28;20373;-72
2021/09/14 00:19:40;;;;;;;17.65;12.98;;;12.40;99.90;;;;;;5073662;28;20025;-72
2021/09/14 00:22:05;;;;;;;16.25;12.70;;;12.30;99.90;;;;;;5073746;28;20024;-72
2021/09/14 00:24:31;;;;;;;19.52;13.98;;;12.20;99.90;;;;;;5073153;28;20052;-72
2021/09/14 00:26:56;;;;;;;23.55;15.95;;;12.20;99.90;;;;;;5073100;28;20049;-72
2021/09/14 00:29:22;;;;;;;20.80;15.50;;;12.10;99.90;;;;;;5073650;28;20090;-72
2021/09/14 00:31:47;;;;;;;22.27;15.23;;;12.10;99.90;;;;;;5055144;28;20020;-72
2021/09/14 00:34:13;;;;;;;26.08;18.25;;;12.10;99.90;;;;;;5073316;28;20032;-72
2021/09/14 00:36:38;;;;;;;25.65;16.15;;;12.20;99.90;;;;;;5055125;28;20021;-72
2021/09/14 00:39:04;;;;;;;28.20;18.15;;;12.20;99.90;;;;;;5073495;28;20033;-72
2021/09/14 00:41:29;;;;;;;29.45;18.98;;;12.20;99.90;;;;;;5073250;28;20425;-72
2021/09/14 00:43:59;;;;;;;34.25;19.58;;;12.30;99.90;;;;;;5073242;28;20032;-72
2021/09/14 00:46:26;;;;;;;28.75;18.73;;;12.30;99.90;;;;;;5073475;28;20020;-72
2021/09/14 00:48:51;;;;;;;29.83;17.83;;;12.30;99.90;;;;;;5073461;28;20370;-72
2021/09/14 00:51:17;;;;;;;32.05;20.25;;;12.30;99.90;;;;;;5073144;28;20039;-72
2021/09/14 00:53:43;;;;;;;26.10;17.67;;;12.40;99.90;;;;;;5073506;28;20060;-72
2021/09/14 00:56:09;;;;;;;27.13;17.73;;;12.30;99.90;;;;;;5054931;28;20033;-72
2021/09/14 00:58:34;;;;;;;29.98;19.30;;;12.30;99.90;;;;;;5072928;28;20060;-72
2021/09/14 01:01:00;;;;;;;27.65;18.98;;;12.30;99.90;;;;;;5073123;28;20047;-72
2021/09/14 01:03:25;;;;;;;35.15;21.33;;;12.30;99.90;;;;;;5072810;28;20481;-72
2021/09/14 01:05:51;;;;;;;32.00;19.45;;;12.30;99.90;;;;;;5073568;28;20031;-72
2021/09/14 01:08:17;;;;;;;30.48;20.23;;;12.30;99.90;;;;;;5076924;28;20021;-72
2021/09/14 01:10:44;;;;;;;35.80;21.27;;;12.30;99.90;;;;;;5076906;28;20029;-72
2021/09/14 01:13:10;;;;;;;35.75;22.65;;;12.30;99.90;;;;;;5076836;28;20025;-72
2021/09/14 01:15:36;;;;;;;35.35;22.08;;;12.40;99.90;;;;;;5076557;28;20066;-72
2021/09/14 01:18:03;;;;;;;31.80;21.38;;;12.40;99.90;;;;;;5058476;28;20024;-72
2021/09/14 01:20:29;;;;;;;32.55;20.75;;;12.40;99.90;;;;;;5076669;28;20370;-72
2021/09/14 01:22:54;;;;;;;28.58;18.15;;;12.30;99.90;;;;;;5076659;28;20028;-73
2021/09/14 01:25:21;;;;;;;30.08;17.77;;;12.30;99.90;;;;;;5076670;28;20032;-72
2021/09/14 01:27:48;;;;;;;25.58;17.67;;;12.20;99.90;;;;;;5058454;28;20017;-72
2021/09/14 01:30:19;;;;;;;25.38;17.15;;;12.10;99.90;;;;;;5058428;28;20025;-72
2021/09/14 01:32:48;;;;;;;22.52;14.98;;;12.10;99.90;;;;;;5076541;28;20033;-72
2021/09/14 01:35:20;;;;;;;19.52;14.52;;;12.00;99.90;;;;;;5076505;28;20062;-72
2021/09/14 01:37:46;;;;;;;24.90;16.40;;;11.90;99.90;;;;;;5076762;28;20024;-72
2021/09/14 01:40:12;;;;;;;26.35;17.65;;;11.90;99.90;;;;;;5076023;28;20024;-72
2021/09/14 01:42:38;;;;;;;27.05;19.33;;;11.80;99.90;;;;;;5058588;28;20378;-72
2021/09/14 01:45:06;;;;;;;30.95;20.27;;;11.80;99.90;;;;;;5076278;28;20031;-72
2021/09/14 01:47:31;;;;;;;28.60;19.45;;;11.70;99.90;;;;;;5075718;28;20028;-72
2021/09/14 01:49:57;;;;;;;28.95;18.17;;;11.70;99.90;;;;;;5058354;28;20074;-72
2021/09/14 01:52:25;;;;;;;26.52;18.33;;;11.60;99.90;;;;;;5075912;28;20031;-72
2021/09/14 01:54:51;;;;;;;32.78;19.35;;;11.60;99.90;;;;;;5076132;28;20374;-72
2021/09/14 01:57:21;;;;;;;35.70;20.38;;;11.60;99.90;;;;;;5075809;28;20029;-73
2021/09/14 01:59:49;;;;;;;30.50;20.15;;;11.60;99.90;;;;;;5075238;28;20045;-72
2021/09/14 02:02:25;;;;;;;31.98;19.92;;;11.50;99.90;;;;;;5075989;28;20020;-72
2021/09/14 02:04:56;;;;;;;29.38;19.02;;;11.50;99.90;;;;;;5075922;28;20023;-72
2021/09/14 02:07:36;;;;;;;27.30;17.95;;;11.40;99.90;;;;;;5075872;28;20020;-72
2021/09/14 02:43:22;;;;;;;24.65;16.17;;;11.20;99.90;;;;;;5074649;28;20393;-72
2021/09/14 02:56:19;;;;;;;25.05;16.38;;;11.10;99.90;;;;;;5074224;28;20035;-72
2021/09/14 02:58:38;;;;;;;22.10;15.82;;;11.10;99.90;;;;;;5074180;28;20020;-72
2021/09/14 02:59:37;;;;;;;25.55;16.45;;;11.10;99.90;;;;;;5073894;28;20094;-72
2021/09/14 03:02:03;;;;;;;23.23;16.48;;;11.00;99.90;;;;;;5074807;28;20025;-72
2021/09/14 03:04:30;;;;;;;23.73;15.40;;;11.00;99.90;;;;;;5074431;28;20441;-73
2021/09/14 03:06:55;;;;;;;24.77;16.90;;;11.00;99.90;;;;;;5074700;28;20020;-72
2021/09/14 03:09:21;;;;;;;24.30;17.42;;;10.90;99.90;;;;;;5074393;28;20031;-72
2021/09/14 03:11:46;;;;;;;21.38;15.88;;;10.90;99.90;;;;;;5074344;28;20029;-72
2021/09/14 03:14:12;;;;;;;22.95;15.40;;;10.90;99.90;;;;;;5074049;28;20466;-72
2021/09/14 03:16:38;;;;;;;25.38;16.83;;;10.90;99.90;;;;;;5074225;28;20027;-72
2021/09/14 03:19:05;;;;;;;26.65;18.15;;;10.90;99.90;;;;;;5040099;28;20118;-72
2021/09/14 03:21:31;;;;;;;24.50;16.85;;;10.80;99.90;;;;;;5073889;28;20024;-72
2021/09/14 03:23:56;;;;;;;25.50;17.27;;;10.80;99.90;;;;;;5074394;28;20032;-72
2021/09/14 03:26:22;;;;;;;27.15;17.33;;;10.80;99.90;;;;;;5074364;28;20039;-72
2021/09/14 03:28:48;;;;;;;29.20;18.90;;;10.70;99.90;;;;;;5073921;28;20071;-73
2021/09/14 03:31:16;;;;;;;26.70;17.30;;;10.70;99.90;;;;;;5056321;28;20028;-72
2021/09/14 03:33:43;;;;;;;26.42;18.13;;;10.70;99.90;;;;;;5056883;28;20043;-72
2021/09/14 03:36:09;;;;;;;25.30;16.75;;;10.70;99.90;;;;;;5073947;28;20020;-73
2021/09/14 03:38:34;;;;;;;24.08;16.65;;;10.70;99.90;;;;;;5073888;28;20025;-72
2021/09/14 03:41:00;;;;;;;29.40;19.95;;;10.70;99.90;;;;;;5073624;28;20103;-72
2021/09/14 03:43:26;;;;;;;28.17;18.00;;;10.70;99.90;;;;;;5074156;28;20377;-72
2021/09/14 03:45:51;;;;;;;33.78;18.83;;;10.70;99.90;;;;;;5074131;28;20016;-72
2021/09/14 03:48:17;;;;;;;28.60;18.08;;;10.60;99.90;;;;;;5074107;28;20509;-72
2021/09/14 03:50:43;;;;;;;26.50;16.77;;;10.50;99.90;;;;;;5073805;28;20382;-72
2021/09/14 03:53:09;;;;;;;26.00;17.10;;;10.50;99.90;;;;;;5073499;28;20029;-72
2021/09/14 03:55:35;;;;;;;24.73;17.13;;;10.50;99.90;;;;;;5055860;28;20025;-72
2021/09/14 03:58:00;;;;;;;28.10;18.45;;;10.50;99.90;;;;;;5073204;28;20033;-73
2021/09/14 04:00:27;;;;;;;27.08;18.90;;;10.50;99.90;;;;;;5056165;28;20063;-72
2021/09/14 04:02:57;;;;;;;28.80;18.52;;;10.50;99.90;;;;;;5073930;28;20048;-72
2021/09/14 04:05:30;;;;;;;27.48;17.83;;;10.50;99.90;;;;;;5073929;28;20012;-72
2021/09/14 04:10:48;;;;;;;28.65;18.40;;;10.50;99.90;;;;;;5112252;27;20776;-72
2021/09/14 04:13:13;;;;;;;28.63;18.65;;;10.50;99.90;;;;;;5110471;28;20081;-72
2021/09/14 04:15:39;;;;;;;27.88;17.83;;;10.40;99.90;;;;;;5111879;28;20480;-72
2021/09/14 04:18:05;;;;;;;27.90;18.42;;;10.50;99.90;;;;;;5111309;28;20477;-72
2021/09/14 04:20:31;;;;;;;27.20;17.65;;;10.40;99.90;;;;;;5110643;28;20529;-72
2021/09/14 04:22:57;;;;;;;28.05;18.77;;;10.40;99.90;;;;;;5111450;28;20038;-71
2021/09/14 04:25:22;;;;;;;24.30;16.50;;;10.40;99.90;;;;;;5111696;28;20024;-72
2021/09/14 04:27:49;;;;;;;26.48;17.50;;;10.30;99.90;;;;;;5111648;28;20020;-72
2021/09/14 04:30:15;;;;;;;30.23;19.80;;;10.30;99.90;;;;;;5110963;28;20073;-71
2021/09/14 04:32:41;;;;;;;31.05;19.75;;;10.30;99.90;;;;;;5111615;28;20020;-72
2021/09/14 04:35:06;;;;;;;30.60;19.90;;;10.30;99.90;;;;;;5111505;28;20031;-72
2021/09/14 04:37:32;;;;;;;30.05;19.33;;;10.20;99.90;;;;;;5111251;28;20024;-72
2021/09/14 04:39:57;;;;;;;29.63;18.08;;;10.20;99.90;;;;;;5111191;28;20114;-72
2021/09/14 04:42:23;;;;;;;29.00;18.40;;;10.20;99.90;;;;;;5111369;28;20373;-72
2021/09/14 04:44:48;;;;;;;28.10;19.23;;;10.20;99.90;;;;;;5111344;28;20054;-72
2021/09/14 04:47:14;;;;;;;32.55;19.77;;;10.20;99.90;;;;;;5110977;28;20081;-72
2021/09/14 04:49:39;;;;;;;33.38;19.95;;;10.20;99.90;;;;;;5111178;28;20031;-72
2021/09/14 04:52:06;;;;;;;32.35;20.77;;;10.20;99.90;;;;;;5110889;28;20094;-71
2021/09/14 04:54:36;;;;;;;34.25;20.83;;;10.20;99.90;;;;;;5111200;28;20012;-71
2021/09/14 04:57:03;;;;;;;38.92;22.83;;;10.20;99.90;;;;;;5111107;28;20020;-71
2021/09/14 04:59:29;;;;;;;34.08;20.77;;;10.20;99.90;;;;;;5111082;28;20381;-72
2021/09/14 05:01:55;;;;;;;34.45;20.80;;;10.30;99.90;;;;;;5109204;28;20110;-72
2021/09/14 05:04:20;;;;;;;38.05;23.45;;;10.30;99.90;;;;;;5110421;28;20170;-72
2021/09/14 05:06:46;;;;;;;40.10;23.65;;;10.30;99.90;;;;;;5110948;28;20059;-72
2021/09/14 05:09:12;;;;;;;36.65;23.52;;;10.30;99.90;;;;;;5110374;28;20071;-72
2021/09/14 05:11:37;;;;;;;39.53;23.95;;;10.30;99.90;;;;;;5110824;28;20020;-72
2021/09/14 05:14:03;;;;;;;37.88;23.75;;;10.30;99.90;;;;;;5110512;28;20027;-72
2021/09/14 05:16:28;;;;;;;44.00;24.83;;;10.40;99.90;;;;;;5110703;28;20461;-72
2021/09/14 05:18:54;;;;;;;38.53;24.00;;;10.40;99.90;;;;;;5110131;28;20389;-71
2021/09/14 05:21:20;;;;;;;38.67;24.05;;;10.40;99.90;;;;;;5101745;28;20060;-72
2021/09/14 05:23:45;;;;;;;38.50;24.50;;;10.50;99.90;;;;;;5096736;28;20440;-71
2021/09/14 05:26:12;;;;;;;43.45;24.15;;;10.50;99.90;;;;;;5096697;28;20020;-72
2021/09/14 05:28:38;;;;;;;43.70;25.65;;;10.60;99.90;;;;;;5096886;28;20107;-72
2021/09/14 05:31:06;;;;;;;39.00;23.00;;;10.60;99.90;;;;;;5078503;28;20099;-72
2021/09/14 05:33:32;;;;;;;38.72;23.98;;;10.70;99.90;;;;;;5096820;28;20016;-72
2021/09/14 05:35:58;;;;;;;41.97;26.38;;;10.70;99.90;;;;;;5096796;28;20024;-72
2021/09/14 05:38:25;;;;;;;46.42;25.00;;;10.70;99.90;;;;;;5096338;28;20020;-73
2021/09/14 05:40:53;;;;;;;38.45;24.85;;;10.80;99.90;;;;;;5095441;28;20016;-72
2021/09/14 05:43:20;;;;;;;38.35;24.13;;;10.90;99.90;;;;;;5096410;28;20017;-72
2021/09/14 05:45:46;;;;;;;33.25;22.58;;;10.90;99.90;;;;;;5096588;28;20016;-72
2021/09/14 05:48:12;;;;;;;39.03;24.58;;;11.00;99.90;;;;;;5095379;28;20402;-72
2021/09/14 05:50:38;;;;;;;35.10;22.80;;;11.30;99.90;;;;;;5095840;28;20070;-72
2021/09/14 05:53:04;;;;;;;31.35;20.20;;;11.60;99.90;;;;;;5094600;28;20020;-72
2021/09/14 05:55:29;;;;;;;26.02;18.50;;;11.70;99.90;;;;;;5096143;28;20031;-72
2021/09/14 05:57:55;;;;;;;26.13;18.60;;;11.70;99.90;;;;;;5096369;28;20053;-72
2021/09/14 06:00:22;;;;;;;28.85;19.65;;;11.70;99.90;;;;;;5095689;28;20049;-72
2021/09/14 06:02:49;;;;;;;28.83;20.95;;;11.80;99.90;;;;;;5092869;28;20350;-72
2021/09/14 06:05:15;;;;;;;26.45;18.92;;;12.00;99.90;;;;;;5093760;28;20032;-72
2021/09/14 06:07:41;;;;;;;30.75;21.58;;;12.10;99.90;;;;;;5075834;28;20028;-72
2021/09/14 06:10:07;;;;;;;30.33;21.85;;;12.30;99.90;;;;;;5081850;28;20035;-72
2021/09/14 06:12:33;;;;;;;32.17;20.30;;;12.50;99.90;;;;;;5095513;28;20035;-72
2021/09/14 06:14:59;;;;;;;24.70;18.30;;;12.60;99.90;;;;;;5095874;28;20106;-72
2021/09/14 06:17:24;;;;;;;24.70;17.90;;;12.90;99.90;;;;;;5094460;28;20020;-72
2021/09/14 06:19:50;;;;;;;20.83;16.33;;;13.00;99.90;;;;;;5095923;28;20066;-72
2021/09/14 06:22:19;;;;;;;20.60;14.35;;;13.30;99.90;;;;;;5095603;28;20020;-72
2021/09/14 06:24:45;;;;;;;17.65;12.65;;;14.40;99.90;;;;;;5095573;28;20056;-71
2021/09/14 06:27:11;;;;;;;12.68;10.75;;;16.10;99.90;;;;;;5095441;28;20028;-73
2021/09/14 06:29:38;;;;;;;10.55;8.95;;;17.80;99.90;;;;;;5094126;28;20094;-70
2021/09/14 06:32:06;;;;;;;10.68;9.57;;;19.10;99.90;;;;;;5094514;28;20021;-70
2021/09/14 06:34:33;;;;;;;9.68;8.30;;;19.80;99.90;;;;;;5095294;28;20016;-70
2021/09/14 06:36:58;;;;;;;9.90;7.90;;;20.40;99.90;;;;;;5095385;28;20058;-70
2021/09/14 06:39:24;;;;;;;7.63;6.80;;;21.10;99.90;;;;;;5094894;28;20041;-69
2021/09/14 06:41:49;;;;;;;9.98;7.00;;;21.30;99.90;;;;;;5094258;28;20081;-70
2021/09/14 06:44:15;;;;;;;9.20;7.30;;;21.50;99.90;;;;;;5090946;28;20031;-70
2021/09/14 06:46:40;;;;;;;9.45;7.70;;;22.60;99.90;;;;;;5094584;28;20024;-70
2021/09/14 06:49:06;;;;;;;9.73;7.22;;;22.80;99.90;;;;;;5091745;28;20032;-70
2021/09/14 06:51:31;;;;;;;9.07;7.53;;;23.30;99.90;;;;;;5080699;28;20044;-70
2021/09/14 06:53:57;;;;;;;9.80;7.25;;;22.80;99.90;;;;;;5089797;28;20110;-70
2021/09/14 06:56:24;;;;;;;9.07;7.55;;;22.80;99.90;;;;;;5093017;28;20020;-70
2021/09/14 06:58:50;;;;;;;11.38;7.13;;;22.80;99.90;;;;;;5086734;28;20469;-69
2021/09/14 07:01:18;;;;;;;11.27;7.50;;;23.40;99.90;;;;;;5091204;28;20051;-70
2021/09/14 07:03:43;;;;;;;9.13;7.18;;;23.70;99.90;;;;;;5092843;28;20020;-70
2021/09/14 07:06:09;;;;;;;8.95;6.57;;;24.10;99.90;;;;;;5092352;28;20382;-69
2021/09/14 07:08:34;;;;;;;8.07;7.28;;;24.40;99.90;;;;;;5089994;28;20031;-75
2021/09/14 07:11:00;;;;;;;11.70;7.68;;;23.50;99.90;;;;;;5076774;28;20027;-75
2021/09/14 07:13:25;;;;;;;10.35;7.85;;;23.70;99.90;;;;;;5078454;28;20481;-73
2021/09/14 07:15:51;;;;;;;12.32;8.07;;;24.80;99.90;;;;;;5079597;28;20032;-74
2021/09/14 07:18:17;;;;;;;12.65;8.15;;;24.40;99.90;;;;;;5089720;28;20055;-74
2021/09/14 07:20:42;;;;;;;9.85;7.65;;;24.20;99.90;;;;;;5088678;28;20024;-73
2021/09/14 07:23:08;;;;;;;10.93;7.90;;;24.20;99.90;;;;;;5093877;28;20091;-74
2021/09/14 07:25:38;;;;;;;11.85;8.10;;;25.00;99.90;;;;;;5091250;28;20111;-75
2021/09/14 07:28:05;;;;;;;11.80;8.52;;;23.90;99.90;;;;;;5082959;28;20051;-74
2021/09/14 07:30:30;;;;;;;11.35;7.97;;;24.00;99.90;;;;;;5093682;28;20059;-75
2021/09/14 07:32:56;;;;;;;10.35;8.13;;;24.50;99.90;;;;;;5093051;28;20027;-75
2021/09/14 07:35:22;;;;;;;11.10;8.20;;;24.90;99.90;;;;;;5091444;28;20078;-74
2021/09/14 07:37:48;;;;;;;13.18;8.18;;;25.90;99.90;;;;;;5092390;28;20040;-75
2021/09/14 07:40:14;;;;;;;11.43;8.68;;;25.60;99.90;;;;;;5092813;28;20051;-75
2021/09/14 07:42:39;;;;;;;13.02;8.68;;;25.70;99.90;;;;;;5085679;28;20042;-75
2021/09/14 07:45:06;;;;;;;11.75;8.23;;;25.90;99.90;;;;;;5092039;28;20032;-75
2021/09/14 07:47:32;;;;;;;15.82;8.85;;;25.00;99.90;;;;;;5089656;28;20496;-75
2021/09/14 07:49:58;;;;;;;11.30;8.93;;;24.50;99.90;;;;;;5093155;28;20028;-75
2021/09/14 07:52:23;;;;;;;15.75;8.35;;;25.40;99.90;;;;;;5090916;28;20027;-75
2021/09/14 07:54:49;;;;;;;13.20;8.43;;;25.60;99.90;;;;;;5077888;28;20033;-74
2021/09/14 07:57:14;;;;;;;16.15;8.85;;;25.70;99.90;;;;;;5088709;28;20382;-75
2021/09/14 07:59:40;;;;;;;14.00;8.82;;;25.00;99.90;;;;;;5072941;28;20515;-74
2021/09/14 08:02:05;;;;;;;14.02;8.55;;;25.30;99.90;;;;;;5071819;28;20059;-74
2021/09/14 08:04:31;;;;;;;12.55;8.45;;;25.10;99.90;;;;;;5083722;28;20369;-73
2021/09/14 08:06:57;;;;;;;10.38;8.32;;;25.90;99.90;;;;;;5092815;28;20035;-75
2021/09/14 08:09:25;;;;;;;10.07;8.68;;;26.40;99.90;;;;;;5092089;28;20075;-74
2021/09/14 08:11:51;;;;;;;12.25;8.07;;;26.50;99.90;;;;;;5091824;28;20020;-74
2021/09/14 08:14:16;;;;;;;9.50;8.20;;;26.20;99.90;;;;;;5091857;28;20066;-69
2021/09/14 08:16:42;;;;;;;9.48;7.88;;;25.70;99.90;;;;;;5070355;28;20039;-70
2021/09/14 08:19:07;;;;;;;13.30;8.60;;;25.70;99.90;;;;;;5090635;28;20055;-70
2021/09/14 08:21:33;;;;;;;12.85;8.38;;;25.70;99.90;;;;;;5090989;28;20111;-70
2021/09/14 08:23:58;;;;;;;13.95;8.73;;;24.90;99.90;;;;;;5092142;28;20370;-70
2021/09/14 08:26:24;;;;;;;12.75;8.30;;;24.80;99.90;;;;;;5091191;28;20028;-70
2021/09/14 08:28:50;;;;;;;9.50;8.50;;;24.40;99.90;;;;;;5087332;28;20032;-70
2021/09/14 08:31:15;;;;;;;11.75;8.77;;;24.00;99.90;;;;;;5085687;28;20373;-70
2021/09/14 08:33:41;;;;;;;12.35;8.57;;;24.30;99.90;;;;;;5092306;28;20461;-70
2021/09/14 08:36:07;;;;;;;11.50;8.48;;;24.50;99.90;;;;;;5090494;28;20059;-70
2021/09/14 08:38:33;;;;;;;12.25;8.68;;;24.00;99.90;;;;;;5088353;28;20028;-70
2021/09/14 08:41:00;;;;;;;11.23;8.77;;;24.00;99.90;;;;;;5092788;28;20020;-69
2021/09/14 08:43:25;;;;;;;10.57;8.25;;;23.50;99.90;;;;;;5090794;28;20039;-70
2021/09/14 08:45:51;;;;;;;10.07;7.32;;;23.50;99.90;;;;;;5092658;28;20086;-70
2021/09/14 08:48:17;;;;;;;10.65;7.40;;;23.90;99.90;;;;;;5084699;28;20017;-70
2021/09/14 08:50:43;;;;;;;10.40;7.18;;;23.60;99.90;;;;;;5088337;28;20024;-70
2021/09/14 08:53:09;;;;;;;9.25;6.88;;;23.30;99.90;;;;;;5091409;28;20523;-70
2021/09/14 08:55:35;;;;;;;9.65;6.88;;;23.40;99.90;;;;;;5091417;28;20146;-74
2021/09/14 08:58:03;;;;;;;8.57;6.93;;;23.50;99.90;;;;;;5095985;28;20023;-73
2021/09/14 09:00:31;;;;;;;8.70;7.00;;;23.20;99.90;;;;;;5096602;28;20024;-73
2021/09/14 09:02:56;;;;;;;10.85;8.00;;;23.40;99.90;;;;;;5095263;28;20390;-73
2021/09/14 09:05:31;;;;;;;9.65;6.45;;;23.40;99.90;;;;;;5095574;28;20039;-74
2021/09/14 09:07:57;;;;;;;10.00;7.05;;;24.20;99.90;;;;;;5095028;28;20115;-73
2021/09/14 09:10:22;;;;;;;10.45;7.22;;;23.90;99.90;;;;;;5092227;28;20577;-73
2021/09/14 09:12:49;;;;;;;7.90;6.90;;;23.40;99.90;;;;;;5078849;28;20027;-73
2021/09/14 09:15:33;;;;;;;10.10;6.57;;;24.20;99.90;;;;;;5076390;28;20016;-73
2021/09/14 09:18:09;;;;;;;9.68;6.78;;;25.10;99.90;;;;;;5078397;28;20457;-74
2021/09/14 09:20:38;;;;;;;11.30;6.57;;;25.20;99.90;;;;;;5091788;28;20040;-74
2021/09/14 09:23:09;;;;;;;11.13;6.90;;;25.50;99.90;;;;;;5093579;28;20024;-74
2021/09/14 09:25:35;;;;;;;8.35;6.45;;;25.10;99.90;;;;;;5096108;28;20024;-74
2021/09/14 09:28:04;;;;;;;8.00;6.00;;;25.60;99.90;;;;;;5095365;28;20024;-74
2021/09/14 09:30:34;;;;;;;6.60;5.68;;;26.50;99.90;;;;;;5093994;28;20039;-68
2021/09/14 09:33:03;;;;;;;7.35;4.95;;;27.30;99.90;;;;;;5094171;28;20107;-70
2021/09/14 09:35:31;;;;;;;6.50;5.60;;;27.10;99.90;;;;;;5094848;28;20095;-70
2021/09/14 09:37:58;;;;;;;6.57;5.18;;;27.20;99.90;;;;;;5095565;28;20024;-70
2021/09/14 09:40:26;;;;;;;7.63;5.88;;;27.20;99.90;;;;;;5093476;28;20027;-70
2021/09/14 09:42:52;;;;;;;8.85;4.97;;;27.30;99.90;;;;;;5094025;28;20028;-70
2021/09/14 09:45:19;;;;;;;9.15;4.88;;;27.40;99.90;;;;;;5087557;28;20095;-70
2021/09/14 09:47:47;;;;;;;5.60;4.75;;;27.10;99.90;;;;;;5095510;28;20024;-70
2021/09/14 09:50:13;;;;;;;6.88;4.95;;;27.20;99.90;;;;;;5093772;28;20050;-70
2021/09/14 09:52:39;;;;;;;5.43;4.90;;;27.10;99.90;;;;;;5089745;28;20458;-67
2021/09/14 09:55:05;;;;;;;7.47;4.38;;;27.60;99.90;;;;;;5076210;28;20516;-67
2021/09/14 09:57:32;;;;;;;6.63;5.13;;;27.50;99.90;;;;;;5089924;28;20046;-67
2021/09/14 09:59:58;;;;;;;5.90;4.57;;;28.00;99.90;;;;;;5095466;28;20028;-67
2021/09/14 10:02:26;;;;;;;5.97;4.50;;;27.80;99.90;;;;;;5093327;28;20072;-67
2021/09/14 10:05:00;;;;;;;6.43;4.90;;;28.30;99.90;;;;;;5093780;28;20032;-67
2021/09/14 10:07:29;;;;;;;8.07;4.88;;;28.60;99.90;;;;;;5094963;28;20030;-67
2021/09/14 10:09:57;;;;;;;5.72;4.65;;;28.50;99.90;;;;;;5092765;28;20134;-67
2021/09/14 10:15:08;;;;;;;5.93;4.70;;;28.10;99.90;;;;;;5067606;28;20402;-65
2021/09/14 10:17:49;;;;;;;5.85;5.00;;;27.30;99.90;;;;;;5055054;28;20017;-66
2021/09/14 10:20:15;;;;;;;5.43;4.00;;;27.60;99.90;;;;;;5055056;28;20057;-65
2021/09/14 10:22:44;;;;;;;5.97;4.53;;;27.90;99.90;;;;;;5061159;28;20142;-66
2021/09/14 10:25:20;;;;;;;5.78;4.60;;;28.20;99.90;;;;;;5056204;28;20386;-65
2021/09/14 10:27:47;;;;;;;5.75;4.93;;;28.50;98.70;;;;;;5054673;28;20099;-66
2021/09/14 10:30:14;;;;;;;7.82;4.60;;;28.30;99.30;;;;;;5049220;28;20060;-65
2021/09/14 10:32:42;;;;;;;6.50;4.90;;;28.60;99.10;;;;;;5053592;28;20116;-66
2021/09/14 10:35:10;;;;;;;4.40;4.00;;;28.60;98.70;;;;;;5054172;28;20029;-65
2021/09/14 10:37:37;;;;;;;6.97;4.50;;;28.70;99.80;;;;;;5056867;28;20055;-66
2021/09/14 10:40:19;;;;;;;7.35;4.30;;;28.40;99.50;;;;;;5044709;28;20025;-66
2021/09/14 10:42:46;;;;;;;4.43;4.03;;;28.30;99.90;;;;;;5060470;28;20079;-65
2021/09/14 10:45:15;;;;;;;5.18;4.50;;;29.40;98.40;;;;;;5054487;28;20022;-65
2021/09/14 10:47:46;;;;;;;6.57;4.85;;;29.00;99.00;;;;;;5051332;28;20041;-65
2021/09/14 10:50:24;;;;;;;7.82;4.30;;;28.10;99.80;;;;;;5041736;28;20497;-65
2021/09/14 10:52:57;;;;;;;5.50;4.03;;;28.20;99.90;;;;;;5039991;28;20104;-65
2021/09/14 10:55:22;;;;;;;6.38;3.95;;;28.50;99.50;;;;;;5050496;28;20057;-65
2021/09/14 10:57:50;;;;;;;3.85;3.55;;;28.70;99.70;;;;;;5055676;28;20479;-65
2021/09/14 11:00:18;;;;;;;4.65;3.60;;;29.10;99.90;;;;;;5048229;28;20108;-66
2021/09/14 11:02:55;;;;;;;5.13;3.85;;;29.20;98.50;;;;;;5047421;28;20025;-65
2021/09/14 11:05:25;;;;;;;4.53;3.80;;;29.10;98.50;;;;;;5038951;28;20037;-66
2021/09/14 11:07:58;;;;;;;4.82;3.50;;;28.50;98.80;;;;;;5044080;28;20032;-66
2021/09/14 11:10:23;;;;;;;5.70;3.35;;;27.60;99.90;;;;;;5049399;28;20068;-66
2021/09/14 11:12:49;;;;;;;5.13;4.18;;;27.70;99.90;;;;;;5049091;28;20463;-73
2021/09/14 11:15:14;;;;;;;4.03;3.47;;;27.80;99.90;;;;;;5038210;28;20033;-73
2021/09/14 11:17:40;;;;;;;6.40;4.10;;;28.00;99.90;;;;;;5052408;28;20491;-73
2021/09/14 11:20:10;;;;;;;6.50;4.10;;;27.80;99.90;;;;;;5048487;28;20036;-73
2021/09/14 11:22:37;;;;;;;5.20;4.20;;;27.80;99.90;;;;;;5046669;28;20067;-73
2021/09/14 11:25:05;;;;;;;5.15;4.10;;;27.80;99.90;;;;;;5043272;28;20045;-73
2021/09/14 11:27:31;;;;;;;8.23;4.82;;;27.50;99.90;;;;;;5033890;28;20026;-74
2021/09/14 11:29:58;;;;;;;6.50;3.95;;;27.20;99.90;;;;;;5022210;28;20089;-74
2021/09/14 11:32:26;;;;;;;5.07;3.90;;;27.20;99.90;;;;;;5028049;28;20029;-73
2021/09/14 11:34:52;;;;;;;5.55;4.80;;;27.40;99.90;;;;;;5025373;28;20505;-73
2021/09/14 11:37:33;;;;;;;5.05;4.40;;;27.10;99.90;;;;;;5035835;28;20072;-73
2021/09/14 11:39:59;;;;;;;4.45;4.07;;;26.80;99.90;;;;;;5029253;28;20406;-73
2021/09/14 11:42:25;;;;;;;9.48;4.15;;;26.80;99.90;;;;;;5035346;28;20025;-73
2021/09/14 11:45:08;;;;;;;5.93;4.60;;;26.70;99.90;;;;;;5035656;28;20380;-74
2021/09/14 11:47:43;;;;;;;6.60;4.60;;;26.60;99.90;;;;;;5032480;28;20025;-73
2021/09/14 11:50:10;;;;;;;6.97;4.40;;;26.30;99.90;;;;;;5039998;28;20064;-74
2021/09/14 11:52:35;;;;;;;8.75;4.35;;;26.30;99.90;;;;;;5041088;28;20505;-74
2021/09/14 11:55:08;;;;;;;7.63;4.07;;;26.30;99.90;;;;;;5035323;28;20065;-73
2021/09/14 11:57:33;;;;;;;8.63;4.87;;;26.60;99.90;;;;;;5032346;28;20025;-70
2021/09/14 12:00:10;;;;;;;5.07;4.53;;;26.80;99.90;;;;;;5020377;28;20284;-70
2021/09/14 12:02:35;;;;;;;6.38;4.70;;;26.90;99.90;;;;;;5024608;28;20028;-70
2021/09/14 12:05:01;;;;;;;5.13;4.63;;;27.00;99.90;;;;;;5033733;28;20034;-70
2021/09/14 12:07:26;;;;;;;6.95;4.40;;;26.90;99.90;;;;;;5032152;28;20025;-70
2021/09/14 12:10:02;;;;;;;7.25;4.07;;;26.80;99.90;;;;;;5032565;28;20055;-70
2021/09/14 12:12:28;;;;;;;4.80;3.70;;;27.00;99.90;;;;;;5025726;28;20069;-70
2021/09/14 12:14:55;;;;;;;3.90;3.40;;;27.30;99.90;;;;;;5014957;28;20511;-70
2021/09/14 12:17:28;;;;;;;7.10;4.50;;;27.60;99.90;;;;;;5022250;28;20021;-70
2021/09/14 12:19:53;;;;;;;5.37;4.57;;;27.50;99.90;;;;;;5034899;28;20045;-70
2021/09/14 12:22:19;;;;;;;5.38;4.13;;;27.40;99.90;;;;;;5039834;28;20506;-70
2021/09/14 12:24:44;;;;;;;6.93;4.13;;;27.40;99.90;;;;;;5035139;28;20082;-71
2021/09/14 12:27:10;;;;;;;7.20;4.30;;;27.30;99.90;;;;;;5034979;28;20037;-70
2021/09/14 12:29:36;;;;;;;8.68;4.18;;;27.10;99.90;;;;;;5038359;28;20033;-70
2021/09/14 12:32:02;;;;;;;6.57;4.30;;;26.90;99.90;;;;;;5042783;28;20047;-70
2021/09/14 12:34:28;;;;;;;5.80;3.72;;;26.90;99.90;;;;;;5034513;28;20021;-70
2021/09/14 12:36:54;;;;;;;6.53;4.00;;;26.70;99.90;;;;;;5044375;28;20020;-70
2021/09/14 12:39:21;;;;;;;4.65;3.67;;;26.60;99.90;;;;;;5041605;28;20033;-70
2021/09/14 12:41:47;;;;;;;7.43;4.30;;;26.70;99.90;;;;;;5040659;28;20100;-70
2021/09/14 12:44:13;;;;;;;7.68;4.55;;;26.80;99.90;;;;;;5034029;28;20498;-70
2021/09/14 12:46:40;;;;;;;7.10;4.45;;;26.50;99.90;;;;;;5025990;28;20026;-70
2021/09/14 12:49:06;;;;;;;5.22;4.57;;;26.80;99.90;;;;;;5014823;28;20034;-70
2021/09/14 12:51:31;;;;;;;4.72;4.20;;;26.80;99.90;;;;;;5026241;28;20080;-70
2021/09/14 12:53:57;;;;;;;5.55;4.25;;;26.60;99.90;;;;;;5034145;28;20112;-70
2021/09/14 12:56:23;;;;;;;8.00;4.43;;;26.90;99.90;;;;;;5019107;28;20538;-69
2021/09/14 12:58:48;;;;;;;6.18;4.55;;;27.00;99.90;;;;;;5028960;28;20025;-70
2021/09/14 13:01:14;;;;;;;5.65;4.50;;;27.00;99.90;;;;;;5027874;28;20278;-69
2021/09/14 13:03:39;;;;;;;4.82;4.30;;;26.70;99.90;;;;;;5032323;28;20471;-69
2021/09/14 13:06:05;;;;;;;5.00;4.50;;;26.60;99.90;;;;;;5015105;28;20034;-69
2021/09/14 13:08:30;;;;;;;6.60;4.28;;;26.20;99.90;;;;;;5029800;28;20049;-69
2021/09/14 13:10:56;;;;;;;6.35;4.30;;;26.10;99.90;;;;;;5014635;28;20029;-70
2021/09/14 13:16:10;;;;;;;4.88;4.35;;;26.40;99.90;;;;;;5045854;28;20556;-68
2021/09/14 13:18:40;;;;;;;6.30;4.85;;;26.60;99.90;;;;;;5035284;28;20040;-69
2021/09/14 13:21:06;;;;;;;4.82;4.43;;;26.90;99.90;;;;;;5036391;28;20017;-69
2021/09/14 13:23:43;;;;;;;5.97;4.40;;;27.10;99.90;;;;;;5026737;28;20104;-68